sensor_id;sensor_type;location;lat;lon;timestamp;P1;durP1;ratioP1;P2;durP2;ratioP2
71671;SDS011;67659;45.554;11.812;2023-08-06T00:00:20;10.35;;;5.13;;
71671;SDS011;67659;45.554;11.812;2023-08-06T00:02:46;9.80;;;5.50;;
71671;SDS011;67659;45.554;11.812;2023-08-06T00:05:11;9.48;;;5.60;;
71671;SDS011;67659;45.554;11.812;2023-08-06T00:07:37;9.93;;;5.90;;
71671;SDS011;67659;45.554;11.812;2023-08-06T00:10:03;8.05;;;5.13;;
71671;SDS011;67659;45.554;11.812;2023-08-06T00:12:29;10.57;;;6.00;;
71671;SDS011;67659;45.554;11.812;2023-08-06T00:14:55;8.40;;;5.43;;
71671;SDS011;67659;45.554;11.812;2023-08-06T00:17:21;9.95;;;5.63;;
71671;SDS011;67659;45.554;11.812;2023-08-06T00:19:47;10.05;;;5.30;;
71671;SDS011;67659;45.554;11.812;2023-08-06T00:22:13;9.40;;;5.33;;
71671;SDS011;67659;45.554;11.812;2023-08-06T00:24:39;9.45;;;5.50;;
71671;SDS011;67659;45.554;11.812;2023-08-06T00:27:04;7.80;;;5.23;;
71671;SDS011;67659;45.554;11.812;2023-08-06T00:29:30;10.77;;;6.20;;
71671;SDS011;67659;45.554;11.812;2023-08-06T00:31:56;10.70;;;5.38;;
71671;SDS011;67659;45.554;11.812;2023-08-06T00:34:22;10.57;;;5.67;;
71671;SDS011;67659;45.554;11.812;2023-08-06T00:36:47;9.38;;;5.30;;
71671;SDS011;67659;45.554;11.812;2023-08-06T00:39:13;8.50;;;5.60;;
71671;SDS011;67659;45.554;11.812;2023-08-06T00:41:39;8.77;;;5.30;;
71671;SDS011;67659;45.554;11.812;2023-08-06T00:44:05;10.88;;;5.20;;
71671;SDS011;67659;45.554;11.812;2023-08-06T00:46:31;7.93;;;5.40;;
71671;SDS011;67659;45.554;11.812;2023-08-06T00:48:58;9.20;;;5.32;;
71671;SDS011;67659;45.554;11.812;2023-08-06T00:51:25;12.27;;;5.38;;
71671;SDS011;67659;45.554;11.812;2023-08-06T00:53:52;8.55;;;5.28;;
71671;SDS011;67659;45.554;11.812;2023-08-06T00:56:18;11.33;;;5.77;;
71671;SDS011;67659;45.554;11.812;2023-08-06T00:58:44;10.52;;;5.40;;
71671;SDS011;67659;45.554;11.812;2023-08-06T01:01:11;9.43;;;5.40;;
71671;SDS011;67659;45.554;11.812;2023-08-06T01:03:37;16.02;;;5.50;;
71671;SDS011;67659;45.554;11.812;2023-08-06T01:06:03;8.93;;;5.35;;
71671;SDS011;67659;45.554;11.812;2023-08-06T01:08:35;8.37;;;5.07;;
71671;SDS011;67659;45.554;11.812;2023-08-06T01:14:06;10.75;;;5.53;;
71671;SDS011;67659;45.554;11.812;2023-08-06T01:16:37;8.43;;;5.32;;
71671;SDS011;67659;45.554;11.812;2023-08-06T01:19:15;9.13;;;5.07;;
71671;SDS011;67659;45.554;11.812;2023-08-06T01:21:44;9.20;;;5.00;;
71671;SDS011;67659;45.554;11.812;2023-08-06T01:24:13;8.85;;;5.40;;
71671;SDS011;67659;45.554;11.812;2023-08-06T01:26:42;8.00;;;5.00;;
71671;SDS011;67659;45.554;11.812;2023-08-06T01:29:23;9.05;;;5.25;;
71671;SDS011;67659;45.554;11.812;2023-08-06T01:31:56;8.40;;;5.00;;
71671;SDS011;67659;45.554;11.812;2023-08-06T01:34:24;9.27;;;4.80;;
71671;SDS011;67659;45.554;11.812;2023-08-06T01:36:53;10.25;;;5.30;;
71671;SDS011;67659;45.554;11.812;2023-08-06T01:39:23;8.75;;;5.00;;
71671;SDS011;67659;45.554;11.812;2023-08-06T01:41:48;8.15;;;3.67;;
71671;SDS011;67659;45.554;11.812;2023-08-06T01:44:15;7.67;;;4.20;;
71671;SDS011;67659;45.554;11.812;2023-08-06T01:46:41;7.50;;;4.70;;
71671;SDS011;67659;45.554;11.812;2023-08-06T01:49:07;9.02;;;4.70;;
71671;SDS011;67659;45.554;11.812;2023-08-06T01:51:33;9.87;;;5.10;;
71671;SDS011;67659;45.554;11.812;2023-08-06T01:53:59;11.88;;;5.10;;
71671;SDS011;67659;45.554;11.812;2023-08-06T01:56:24;10.18;;;5.25;;
71671;SDS011;67659;45.554;11.812;2023-08-06T01:58:50;8.50;;;4.80;;
71671;SDS011;67659;45.554;11.812;2023-08-06T02:01:16;9.82;;;5.10;;
71671;SDS011;67659;45.554;11.812;2023-08-06T02:03:42;10.50;;;5.30;;
71671;SDS011;67659;45.554;11.812;2023-08-06T02:06:07;9.13;;;5.30;;
71671;SDS011;67659;45.554;11.812;2023-08-06T02:08:33;9.63;;;4.95;;
71671;SDS011;67659;45.554;11.812;2023-08-06T02:10:59;9.90;;;5.17;;
71671;SDS011;67659;45.554;11.812;2023-08-06T02:13:25;8.90;;;4.75;;
71671;SDS011;67659;45.554;11.812;2023-08-06T02:15:51;11.97;;;4.40;;
71671;SDS011;67659;45.554;11.812;2023-08-06T02:18:16;7.77;;;4.83;;
71671;SDS011;67659;45.554;11.812;2023-08-06T02:20:42;8.93;;;5.00;;
71671;SDS011;67659;45.554;11.812;2023-08-06T02:23:08;9.15;;;4.68;;
71671;SDS011;67659;45.554;11.812;2023-08-06T02:25:35;8.27;;;5.07;;
71671;SDS011;67659;45.554;11.812;2023-08-06T02:28:01;10.23;;;5.50;;
71671;SDS011;67659;45.554;11.812;2023-08-06T02:30:26;11.18;;;6.13;;
71671;SDS011;67659;45.554;11.812;2023-08-06T02:32:52;11.67;;;6.00;;
71671;SDS011;67659;45.554;11.812;2023-08-06T02:35:18;12.38;;;6.10;;
71671;SDS011;67659;45.554;11.812;2023-08-06T02:37:44;11.88;;;5.57;;
71671;SDS011;67659;45.554;11.812;2023-08-06T02:40:15;9.23;;;6.40;;
71671;SDS011;67659;45.554;11.812;2023-08-06T02:42:43;8.80;;;5.60;;
71671;SDS011;67659;45.554;11.812;2023-08-06T02:45:10;8.73;;;5.35;;
71671;SDS011;67659;45.554;11.812;2023-08-06T02:47:36;8.43;;;5.35;;
71671;SDS011;67659;45.554;11.812;2023-08-06T02:50:14;10.97;;;6.23;;
71671;SDS011;67659;45.554;11.812;2023-08-06T02:52:41;9.88;;;6.00;;
71671;SDS011;67659;45.554;11.812;2023-08-06T02:55:07;9.70;;;5.40;;
71671;SDS011;67659;45.554;11.812;2023-08-06T02:57:33;10.43;;;6.20;;
71671;SDS011;67659;45.554;11.812;2023-08-06T02:59:59;10.93;;;5.97;;
71671;SDS011;67659;45.554;11.812;2023-08-06T03:02:25;10.75;;;6.40;;
71671;SDS011;67659;45.554;11.812;2023-08-06T03:04:51;13.23;;;5.93;;
71671;SDS011;67659;45.554;11.812;2023-08-06T03:07:16;9.27;;;5.35;;
71671;SDS011;67659;45.554;11.812;2023-08-06T03:09:42;9.68;;;5.30;;
71671;SDS011;67659;45.554;11.812;2023-08-06T03:12:08;9.40;;;5.57;;
71671;SDS011;67659;45.554;11.812;2023-08-06T03:14:34;9.77;;;6.07;;
71671;SDS011;67659;45.554;11.812;2023-08-06T03:17:00;9.90;;;5.80;;
71671;SDS011;67659;45.554;11.812;2023-08-06T03:19:26;10.57;;;6.13;;
71671;SDS011;67659;45.554;11.812;2023-08-06T03:21:51;9.52;;;5.97;;
71671;SDS011;67659;45.554;11.812;2023-08-06T03:24:17;11.00;;;6.30;;
71671;SDS011;67659;45.554;11.812;2023-08-06T03:26:43;10.37;;;6.00;;
71671;SDS011;67659;45.554;11.812;2023-08-06T03:29:09;10.48;;;5.65;;
71671;SDS011;67659;45.554;11.812;2023-08-06T03:31:35;10.68;;;6.00;;
71671;SDS011;67659;45.554;11.812;2023-08-06T03:34:01;9.40;;;5.83;;
71671;SDS011;67659;45.554;11.812;2023-08-06T03:36:27;10.25;;;5.60;;
71671;SDS011;67659;45.554;11.812;2023-08-06T03:38:52;9.88;;;5.72;;
71671;SDS011;67659;45.554;11.812;2023-08-06T03:41:18;10.13;;;5.60;;
71671;SDS011;67659;45.554;11.812;2023-08-06T03:43:44;8.65;;;5.40;;
71671;SDS011;67659;45.554;11.812;2023-08-06T03:46:10;11.80;;;5.30;;
71671;SDS011;67659;45.554;11.812;2023-08-06T03:48:36;12.18;;;5.45;;
71671;SDS011;67659;45.554;11.812;2023-08-06T03:51:01;14.13;;;5.47;;
71671;SDS011;67659;45.554;11.812;2023-08-06T03:53:27;10.73;;;5.37;;
71671;SDS011;67659;45.554;11.812;2023-08-06T03:55:53;8.45;;;5.13;;
71671;SDS011;67659;45.554;11.812;2023-08-06T03:58:20;8.82;;;5.43;;
71671;SDS011;67659;45.554;11.812;2023-08-06T04:00:46;9.50;;;5.17;;
71671;SDS011;67659;45.554;11.812;2023-08-06T04:03:12;8.02;;;5.20;;
71671;SDS011;67659;45.554;11.812;2023-08-06T04:05:38;9.63;;;5.68;;
71671;SDS011;67659;45.554;11.812;2023-08-06T04:08:04;8.93;;;5.20;;
71671;SDS011;67659;45.554;11.812;2023-08-06T04:10:30;10.00;;;5.70;;
71671;SDS011;67659;45.554;11.812;2023-08-06T04:12:56;8.48;;;5.18;;
71671;SDS011;67659;45.554;11.812;2023-08-06T04:15:22;9.23;;;5.50;;
71671;SDS011;67659;45.554;11.812;2023-08-06T04:17:48;11.68;;;6.20;;
71671;SDS011;67659;45.554;11.812;2023-08-06T04:20:14;9.18;;;5.50;;
71671;SDS011;67659;45.554;11.812;2023-08-06T04:22:40;11.23;;;6.10;;
71671;SDS011;67659;45.554;11.812;2023-08-06T04:25:06;9.73;;;5.70;;
71671;SDS011;67659;45.554;11.812;2023-08-06T04:27:32;7.78;;;5.15;;
71671;SDS011;67659;45.554;11.812;2023-08-06T04:29:58;7.60;;;4.30;;
71671;SDS011;67659;45.554;11.812;2023-08-06T04:32:24;8.40;;;5.30;;
71671;SDS011;67659;45.554;11.812;2023-08-06T04:34:51;9.38;;;5.38;;
71671;SDS011;67659;45.554;11.812;2023-08-06T04:37:17;8.93;;;4.95;;
71671;SDS011;67659;45.554;11.812;2023-08-06T04:39:42;10.17;;;4.67;;
71671;SDS011;67659;45.554;11.812;2023-08-06T04:42:08;8.90;;;4.78;;
71671;SDS011;67659;45.554;11.812;2023-08-06T04:44:34;10.10;;;5.10;;
71671;SDS011;67659;45.554;11.812;2023-08-06T04:47:00;11.43;;;4.40;;
71671;SDS011;67659;45.554;11.812;2023-08-06T04:49:26;9.00;;;4.43;;
71671;SDS011;67659;45.554;11.812;2023-08-06T08:28:26;5.93;;;2.10;;
71671;SDS011;67659;45.554;11.812;2023-08-06T08:30:53;4.90;;;2.13;;
71671;SDS011;67659;45.554;11.812;2023-08-06T08:33:41;4.45;;;2.10;;
71671;SDS011;67659;45.554;11.812;2023-08-06T08:36:06;4.68;;;2.20;;
71671;SDS011;67659;45.554;11.812;2023-08-06T08:38:32;6.50;;;2.17;;
71671;SDS011;67659;45.554;11.812;2023-08-06T08:40:58;5.80;;;2.57;;
71671;SDS011;67659;45.554;11.812;2023-08-06T08:43:24;5.03;;;2.40;;
71671;SDS011;67659;45.554;11.812;2023-08-06T08:45:50;4.23;;;2.00;;
71671;SDS011;67659;45.554;11.812;2023-08-06T08:48:17;3.72;;;1.92;;
71671;SDS011;67659;45.554;11.812;2023-08-06T08:50:45;4.32;;;1.92;;
71671;SDS011;67659;45.554;11.812;2023-08-06T08:53:14;5.75;;;1.85;;
71671;SDS011;67659;45.554;11.812;2023-08-06T08:55:42;4.10;;;2.15;;
71671;SDS011;67659;45.554;11.812;2023-08-06T08:58:10;5.13;;;2.27;;
71671;SDS011;67659;45.554;11.812;2023-08-06T09:00:36;4.45;;;2.25;;
71671;SDS011;67659;45.554;11.812;2023-08-06T09:03:02;7.95;;;2.10;;
71671;SDS011;67659;45.554;11.812;2023-08-06T09:05:31;4.88;;;1.60;;
71671;SDS011;67659;45.554;11.812;2023-08-06T09:08:02;4.40;;;1.70;;
71671;SDS011;67659;45.554;11.812;2023-08-06T09:10:29;4.30;;;2.33;;
71671;SDS011;67659;45.554;11.812;2023-08-06T09:12:56;3.22;;;1.80;;
71671;SDS011;67659;45.554;11.812;2023-08-06T09:15:24;3.38;;;1.55;;
71671;SDS011;67659;45.554;11.812;2023-08-06T09:17:51;9.75;;;1.95;;
71671;SDS011;67659;45.554;11.812;2023-08-06T09:20:17;4.28;;;2.00;;
71671;SDS011;67659;45.554;11.812;2023-08-06T09:22:44;3.50;;;2.00;;
71671;SDS011;67659;45.554;11.812;2023-08-06T09:25:13;4.32;;;1.98;;
71671;SDS011;67659;45.554;11.812;2023-08-06T09:27:48;4.75;;;2.00;;
71671;SDS011;67659;45.554;11.812;2023-08-06T09:30:28;5.72;;;2.20;;
71671;SDS011;67659;45.554;11.812;2023-08-06T09:32:59;5.25;;;2.10;;
71671;SDS011;67659;45.554;11.812;2023-08-06T09:35:28;4.87;;;2.00;;
71671;SDS011;67659;45.554;11.812;2023-08-06T09:38:06;6.05;;;2.00;;
71671;SDS011;67659;45.554;11.812;2023-08-06T09:40:35;6.80;;;2.28;;
71671;SDS011;67659;45.554;11.812;2023-08-06T09:43:01;4.63;;;1.92;;
71671;SDS011;67659;45.554;11.812;2023-08-06T09:45:31;3.70;;;1.73;;
71671;SDS011;67659;45.554;11.812;2023-08-06T09:47:58;5.07;;;1.92;;
71671;SDS011;67659;45.554;11.812;2023-08-06T09:50:28;5.53;;;2.40;;
71671;SDS011;67659;45.554;11.812;2023-08-06T09:52:57;4.18;;;1.95;;
71671;SDS011;67659;45.554;11.812;2023-08-06T09:55:24;4.38;;;2.20;;
71671;SDS011;67659;45.554;11.812;2023-08-06T09:57:51;5.80;;;2.40;;
71671;SDS011;67659;45.554;11.812;2023-08-06T10:00:18;4.55;;;2.30;;
71671;SDS011;67659;45.554;11.812;2023-08-06T10:02:45;4.93;;;2.40;;
71671;SDS011;67659;45.554;11.812;2023-08-06T10:05:11;4.18;;;2.00;;
71671;SDS011;67659;45.554;11.812;2023-08-06T10:07:37;5.07;;;1.90;;
71671;SDS011;67659;45.554;11.812;2023-08-06T10:10:05;5.43;;;2.20;;
71671;SDS011;67659;45.554;11.812;2023-08-06T10:12:34;6.25;;;2.20;;
71671;SDS011;67659;45.554;11.812;2023-08-06T10:15:04;5.25;;;2.40;;
71671;SDS011;67659;45.554;11.812;2023-08-06T10:17:32;4.28;;;2.30;;
71671;SDS011;67659;45.554;11.812;2023-08-06T10:20:02;5.05;;;2.17;;
71671;SDS011;67659;45.554;11.812;2023-08-06T10:22:29;4.67;;;2.30;;
71671;SDS011;67659;45.554;11.812;2023-08-06T10:24:59;4.53;;;2.08;;
71671;SDS011;67659;45.554;11.812;2023-08-06T10:27:39;5.75;;;2.10;;
71671;SDS011;67659;45.554;11.812;2023-08-06T10:33:00;4.93;;;2.10;;
71671;SDS011;67659;45.554;11.812;2023-08-06T10:37:58;5.78;;;2.22;;
71671;SDS011;67659;45.554;11.812;2023-08-06T10:40:24;5.18;;;2.17;;
71671;SDS011;67659;45.554;11.812;2023-08-06T10:42:51;4.93;;;2.40;;
71671;SDS011;67659;45.554;11.812;2023-08-06T10:45:17;4.25;;;1.90;;
71671;SDS011;67659;45.554;11.812;2023-08-06T10:47:44;4.57;;;2.40;;
71671;SDS011;67659;45.554;11.812;2023-08-06T10:50:11;4.43;;;2.28;;
71671;SDS011;67659;45.554;11.812;2023-08-06T10:52:39;4.13;;;2.17;;
71671;SDS011;67659;45.554;11.812;2023-08-06T10:55:05;3.47;;;2.00;;
71671;SDS011;67659;45.554;11.812;2023-08-06T10:57:31;4.30;;;2.38;;
71671;SDS011;67659;45.554;11.812;2023-08-06T10:59:57;4.37;;;2.03;;
71671;SDS011;67659;45.554;11.812;2023-08-06T11:02:23;4.05;;;2.22;;
71671;SDS011;67659;45.554;11.812;2023-08-06T11:04:49;4.17;;;2.30;;
71671;SDS011;67659;45.554;11.812;2023-08-06T11:07:15;5.90;;;1.93;;
71671;SDS011;67659;45.554;11.812;2023-08-06T11:09:42;4.80;;;2.28;;
71671;SDS011;67659;45.554;11.812;2023-08-06T11:12:11;5.70;;;2.30;;
71671;SDS011;67659;45.554;11.812;2023-08-06T11:14:37;4.45;;;2.10;;
71671;SDS011;67659;45.554;11.812;2023-08-06T11:17:04;4.97;;;1.90;;
71671;SDS011;67659;45.554;11.812;2023-08-06T11:19:31;4.22;;;2.00;;
71671;SDS011;67659;45.554;11.812;2023-08-06T11:21:57;3.97;;;1.95;;
71671;SDS011;67659;45.554;11.812;2023-08-06T11:24:26;4.10;;;2.20;;
71671;SDS011;67659;45.554;11.812;2023-08-06T11:26:52;3.80;;;2.03;;
71671;SDS011;67659;45.554;11.812;2023-08-06T11:29:17;6.03;;;2.20;;
71671;SDS011;67659;45.554;11.812;2023-08-06T11:31:44;4.65;;;2.15;;
71671;SDS011;67659;45.554;11.812;2023-08-06T11:34:10;4.50;;;2.10;;
71671;SDS011;67659;45.554;11.812;2023-08-06T11:36:41;7.30;;;2.30;;
71671;SDS011;67659;45.554;11.812;2023-08-06T11:39:06;4.00;;;2.35;;
71671;SDS011;67659;45.554;11.812;2023-08-06T11:41:33;3.75;;;1.83;;
71671;SDS011;67659;45.554;11.812;2023-08-06T11:43:59;4.30;;;2.20;;
71671;SDS011;67659;45.554;11.812;2023-08-06T11:46:25;4.57;;;2.03;;
71671;SDS011;67659;45.554;11.812;2023-08-06T11:48:52;3.83;;;2.10;;
71671;SDS011;67659;45.554;11.812;2023-08-06T11:51:22;4.85;;;2.20;;
71671;SDS011;67659;45.554;11.812;2023-08-06T11:53:51;4.88;;;2.35;;
71671;SDS011;67659;45.554;11.812;2023-08-06T11:56:23;4.95;;;2.00;;
71671;SDS011;67659;45.554;11.812;2023-08-06T11:58:51;5.47;;;2.38;;
71671;SDS011;67659;45.554;11.812;2023-08-06T12:01:18;6.33;;;2.70;;
71671;SDS011;67659;45.554;11.812;2023-08-06T12:03:44;4.00;;;2.17;;
71671;SDS011;67659;45.554;11.812;2023-08-06T12:06:10;4.30;;;2.13;;
71671;SDS011;67659;45.554;11.812;2023-08-06T12:08:35;4.37;;;2.20;;
71671;SDS011;67659;45.554;11.812;2023-08-06T12:11:03;4.72;;;2.00;;
71671;SDS011;67659;45.554;11.812;2023-08-06T12:13:29;6.15;;;2.20;;
71671;SDS011;67659;45.554;11.812;2023-08-06T12:15:54;3.93;;;2.13;;
71671;SDS011;67659;45.554;11.812;2023-08-06T12:18:22;5.70;;;2.17;;
71671;SDS011;67659;45.554;11.812;2023-08-06T12:20:48;5.13;;;2.40;;
71671;SDS011;67659;45.554;11.812;2023-08-06T12:23:14;5.28;;;2.63;;
71671;SDS011;67659;45.554;11.812;2023-08-06T12:25:40;5.35;;;2.30;;
71671;SDS011;67659;45.554;11.812;2023-08-06T12:28:06;5.37;;;2.50;;
71671;SDS011;67659;45.554;11.812;2023-08-06T12:30:33;4.15;;;2.38;;
71671;SDS011;67659;45.554;11.812;2023-08-06T12:32:59;4.38;;;2.28;;
71671;SDS011;67659;45.554;11.812;2023-08-06T12:35:25;4.55;;;2.33;;
71671;SDS011;67659;45.554;11.812;2023-08-06T12:37:51;4.13;;;2.17;;
71671;SDS011;67659;45.554;11.812;2023-08-06T12:40:22;3.97;;;2.20;;
71671;SDS011;67659;45.554;11.812;2023-08-06T12:42:49;5.17;;;2.10;;
71671;SDS011;67659;45.554;11.812;2023-08-06T12:45:15;4.73;;;2.43;;
71671;SDS011;67659;45.554;11.812;2023-08-06T12:47:42;5.82;;;2.40;;
71671;SDS011;67659;45.554;11.812;2023-08-06T12:50:08;4.60;;;2.30;;
71671;SDS011;67659;45.554;11.812;2023-08-06T12:52:34;4.47;;;2.50;;
71671;SDS011;67659;45.554;11.812;2023-08-06T12:54:59;4.40;;;2.10;;
71671;SDS011;67659;45.554;11.812;2023-08-06T12:57:25;4.30;;;2.30;;
71671;SDS011;67659;45.554;11.812;2023-08-06T12:59:52;4.35;;;2.03;;
71671;SDS011;67659;45.554;11.812;2023-08-06T13:02:18;3.67;;;1.73;;
71671;SDS011;67659;45.554;11.812;2023-08-06T13:04:45;3.28;;;1.80;;
71671;SDS011;67659;45.554;11.812;2023-08-06T13:07:11;4.40;;;1.90;;
71671;SDS011;67659;45.554;11.812;2023-08-06T13:09:37;3.53;;;1.87;;
71671;SDS011;67659;45.554;11.812;2023-08-06T13:12:03;5.30;;;1.88;;
71671;SDS011;67659;45.554;11.812;2023-08-06T13:14:31;4.38;;;1.90;;
71671;SDS011;67659;45.554;11.812;2023-08-06T18:34:58;2.17;;;0.70;;
71671;SDS011;67659;45.554;11.812;2023-08-06T18:37:24;2.47;;;0.87;;
71671;SDS011;67659;45.554;11.812;2023-08-06T18:39:51;2.55;;;0.70;;
71671;SDS011;67659;45.554;11.812;2023-08-06T18:42:16;2.03;;;0.70;;
71671;SDS011;67659;45.554;11.812;2023-08-06T18:44:42;2.53;;;0.70;;
71671;SDS011;67659;45.554;11.812;2023-08-06T18:47:08;3.50;;;0.80;;
71671;SDS011;67659;45.554;11.812;2023-08-06T18:49:34;3.35;;;0.80;;
71671;SDS011;67659;45.554;11.812;2023-08-06T18:52:00;2.53;;;0.97;;
71671;SDS011;67659;45.554;11.812;2023-08-06T18:54:25;3.42;;;0.93;;
71671;SDS011;67659;45.554;11.812;2023-08-06T18:56:51;2.35;;;0.80;;
71671;SDS011;67659;45.554;11.812;2023-08-06T18:59:17;3.70;;;0.73;;
71671;SDS011;67659;45.554;11.812;2023-08-06T19:01:47;2.72;;;0.85;;
71671;SDS011;67659;45.554;11.812;2023-08-06T19:04:13;3.83;;;0.90;;
71671;SDS011;67659;45.554;11.812;2023-08-06T19:06:39;2.37;;;0.80;;
71671;SDS011;67659;45.554;11.812;2023-08-06T19:09:05;3.92;;;1.30;;
71671;SDS011;67659;45.554;11.812;2023-08-06T19:11:31;4.53;;;1.20;;
71671;SDS011;67659;45.554;11.812;2023-08-06T19:13:56;5.60;;;1.53;;
71671;SDS011;67659;45.554;11.812;2023-08-06T19:16:22;5.53;;;1.98;;
71671;SDS011;67659;45.554;11.812;2023-08-06T19:18:58;6.75;;;1.75;;
71671;SDS011;67659;45.554;11.812;2023-08-06T19:21:24;7.57;;;1.70;;
71671;SDS011;67659;45.554;11.812;2023-08-06T19:23:50;4.78;;;1.30;;
71671;SDS011;67659;45.554;11.812;2023-08-06T19:26:16;6.07;;;1.70;;
71671;SDS011;67659;45.554;11.812;2023-08-06T19:28:42;9.37;;;1.70;;
71671;SDS011;67659;45.554;11.812;2023-08-06T19:31:08;4.45;;;1.30;;
71671;SDS011;67659;45.554;11.812;2023-08-06T19:33:33;5.93;;;1.00;;
71671;SDS011;67659;45.554;11.812;2023-08-06T19:35:59;5.03;;;0.90;;
71671;SDS011;67659;45.554;11.812;2023-08-06T19:38:25;4.67;;;1.00;;
71671;SDS011;67659;45.554;11.812;2023-08-06T19:40:56;4.75;;;0.90;;
71671;SDS011;67659;45.554;11.812;2023-08-06T19:43:29;2.88;;;0.88;;
71671;SDS011;67659;45.554;11.812;2023-08-06T19:45:55;3.47;;;0.93;;
71671;SDS011;67659;45.554;11.812;2023-08-06T19:48:23;5.95;;;1.00;;
71671;SDS011;67659;45.554;11.812;2023-08-06T19:50:53;5.93;;;1.13;;
71671;SDS011;67659;45.554;11.812;2023-08-06T19:53:30;7.63;;;1.20;;
71671;SDS011;67659;45.554;11.812;2023-08-06T19:56:00;7.53;;;1.17;;
71671;SDS011;67659;45.554;11.812;2023-08-06T19:58:34;5.43;;;1.10;;
71671;SDS011;67659;45.554;11.812;2023-08-06T20:01:00;6.00;;;1.10;;
71671;SDS011;67659;45.554;11.812;2023-08-06T20:03:28;5.63;;;0.85;;
71671;SDS011;67659;45.554;11.812;2023-08-06T20:05:56;4.22;;;1.17;;
71671;SDS011;67659;45.554;11.812;2023-08-06T20:08:24;4.83;;;0.93;;
71671;SDS011;67659;45.554;11.812;2023-08-06T20:10:50;4.90;;;0.85;;
71671;SDS011;67659;45.554;11.812;2023-08-06T20:13:18;5.15;;;0.80;;
71671;SDS011;67659;45.554;11.812;2023-08-06T20:15:46;5.30;;;0.90;;
71671;SDS011;67659;45.554;11.812;2023-08-06T20:18:14;5.77;;;0.80;;
71671;SDS011;67659;45.554;11.812;2023-08-06T20:21:00;4.28;;;0.90;;
71671;SDS011;67659;45.554;11.812;2023-08-06T20:23:27;5.03;;;1.00;;
71671;SDS011;67659;45.554;11.812;2023-08-06T20:25:53;5.63;;;1.00;;
71671;SDS011;67659;45.554;11.812;2023-08-06T20:28:18;4.87;;;1.00;;
71671;SDS011;67659;45.554;11.812;2023-08-06T20:30:44;7.75;;;1.13;;
71671;SDS011;67659;45.554;11.812;2023-08-06T20:33:10;7.30;;;0.90;;
71671;SDS011;67659;45.554;11.812;2023-08-06T20:35:37;6.90;;;0.90;;
71671;SDS011;67659;45.554;11.812;2023-08-06T20:38:04;4.15;;;0.90;;
71671;SDS011;67659;45.554;11.812;2023-08-06T20:40:30;2.57;;;0.73;;
71671;SDS011;67659;45.554;11.812;2023-08-06T20:42:56;2.65;;;0.75;;
71671;SDS011;67659;45.554;11.812;2023-08-06T20:45:21;2.97;;;0.80;;
71671;SDS011;67659;45.554;11.812;2023-08-06T20:47:47;2.67;;;0.70;;
71671;SDS011;67659;45.554;11.812;2023-08-06T20:50:13;3.17;;;0.80;;
71671;SDS011;67659;45.554;11.812;2023-08-06T20:52:38;3.53;;;0.80;;
71671;SDS011;67659;45.554;11.812;2023-08-06T20:55:04;3.00;;;0.88;;
71671;SDS011;67659;45.554;11.812;2023-08-06T20:57:30;2.53;;;0.80;;
71671;SDS011;67659;45.554;11.812;2023-08-06T20:59:56;2.08;;;0.70;;
71671;SDS011;67659;45.554;11.812;2023-08-06T21:02:24;2.83;;;0.70;;
71671;SDS011;67659;45.554;11.812;2023-08-06T21:04:50;2.40;;;0.70;;
71671;SDS011;67659;45.554;11.812;2023-08-06T21:07:17;1.60;;;0.65;;
71671;SDS011;67659;45.554;11.812;2023-08-06T21:09:43;3.20;;;0.70;;
71671;SDS011;67659;45.554;11.812;2023-08-06T21:12:09;3.17;;;0.60;;
71671;SDS011;67659;45.554;11.812;2023-08-06T21:14:34;2.07;;;0.70;;
71671;SDS011;67659;45.554;11.812;2023-08-06T21:17:00;2.10;;;0.70;;
71671;SDS011;67659;45.554;11.812;2023-08-06T21:19:26;2.45;;;0.60;;
71671;SDS011;67659;45.554;11.812;2023-08-06T21:21:52;3.27;;;0.70;;
71671;SDS011;67659;45.554;11.812;2023-08-06T21:24:17;2.75;;;0.75;;
71671;SDS011;67659;45.554;11.812;2023-08-06T21:26:43;3.67;;;0.73;;
71671;SDS011;67659;45.554;11.812;2023-08-06T21:29:09;1.77;;;0.70;;
71671;SDS011;67659;45.554;11.812;2023-08-06T21:31:35;2.83;;;0.80;;
71671;SDS011;67659;45.554;11.812;2023-08-06T21:34:01;2.83;;;0.60;;
71671;SDS011;67659;45.554;11.812;2023-08-06T21:36:27;2.53;;;0.70;;
71671;SDS011;67659;45.554;11.812;2023-08-06T21:38:54;2.17;;;0.80;;
71671;SDS011;67659;45.554;11.812;2023-08-06T21:41:20;1.33;;;0.70;;
71671;SDS011;67659;45.554;11.812;2023-08-06T21:43:46;2.70;;;0.70;;
71671;SDS011;67659;45.554;11.812;2023-08-06T21:46:14;2.90;;;0.80;;
71671;SDS011;67659;45.554;11.812;2023-08-06T21:48:41;2.77;;;0.77;;
71671;SDS011;67659;45.554;11.812;2023-08-06T21:51:12;1.92;;;0.70;;
71671;SDS011;67659;45.554;11.812;2023-08-06T21:53:39;2.22;;;0.70;;
71671;SDS011;67659;45.554;11.812;2023-08-06T21:56:10;2.17;;;0.70;;
71671;SDS011;67659;45.554;11.812;2023-08-06T21:58:41;2.13;;;0.77;;
71671;SDS011;67659;45.554;11.812;2023-08-06T22:01:12;2.30;;;0.80;;
71671;SDS011;67659;45.554;11.812;2023-08-06T22:03:39;4.60;;;1.10;;
71671;SDS011;67659;45.554;11.812;2023-08-06T22:06:06;2.38;;;0.90;;
71671;SDS011;67659;45.554;11.812;2023-08-06T22:08:33;2.78;;;0.70;;
71671;SDS011;67659;45.554;11.812;2023-08-06T22:10:59;5.00;;;1.00;;
71671;SDS011;67659;45.554;11.812;2023-08-06T22:13:25;2.00;;;0.80;;
71671;SDS011;67659;45.554;11.812;2023-08-06T22:15:51;4.90;;;0.90;;
71671;SDS011;67659;45.554;11.812;2023-08-06T22:18:17;1.90;;;0.80;;
71671;SDS011;67659;45.554;11.812;2023-08-06T22:20:45;3.42;;;0.98;;
71671;SDS011;67659;45.554;11.812;2023-08-06T22:23:11;5.27;;;1.00;;
71671;SDS011;67659;45.554;11.812;2023-08-06T22:25:36;1.88;;;0.70;;
71671;SDS011;67659;45.554;11.812;2023-08-06T22:28:02;1.80;;;0.80;;
71671;SDS011;67659;45.554;11.812;2023-08-06T22:30:28;5.93;;;1.00;;
71671;SDS011;67659;45.554;11.812;2023-08-06T22:32:54;3.33;;;0.95;;
71671;SDS011;67659;45.554;11.812;2023-08-06T22:35:20;3.13;;;1.00;;
71671;SDS011;67659;45.554;11.812;2023-08-06T22:37:46;3.67;;;0.90;;
71671;SDS011;67659;45.554;11.812;2023-08-06T22:40:16;3.00;;;0.98;;
71671;SDS011;67659;45.554;11.812;2023-08-06T22:42:42;3.80;;;1.00;;
71671;SDS011;67659;45.554;11.812;2023-08-06T22:45:11;2.90;;;0.90;;
71671;SDS011;67659;45.554;11.812;2023-08-06T22:47:38;2.92;;;0.85;;
71671;SDS011;67659;45.554;11.812;2023-08-06T22:50:07;3.87;;;1.10;;
71671;SDS011;67659;45.554;11.812;2023-08-06T22:52:34;2.50;;;0.90;;
71671;SDS011;67659;45.554;11.812;2023-08-06T22:55:01;2.35;;;1.00;;
71671;SDS011;67659;45.554;11.812;2023-08-06T22:57:27;2.30;;;0.80;;
71671;SDS011;67659;45.554;11.812;2023-08-06T22:59:54;4.82;;;1.13;;
71671;SDS011;67659;45.554;11.812;2023-08-06T23:02:19;4.20;;;1.40;;
71671;SDS011;67659;45.554;11.812;2023-08-06T23:04:46;3.40;;;0.90;;
71671;SDS011;67659;45.554;11.812;2023-08-06T23:07:12;4.00;;;1.10;;
71671;SDS011;67659;45.554;11.812;2023-08-06T23:09:38;7.22;;;1.00;;
71671;SDS011;67659;45.554;11.812;2023-08-06T23:12:04;3.57;;;1.00;;
71671;SDS011;67659;45.554;11.812;2023-08-06T23:14:32;2.72;;;1.00;;
71671;SDS011;67659;45.554;11.812;2023-08-06T23:16:58;3.20;;;1.08;;
71671;SDS011;67659;45.554;11.812;2023-08-06T23:19:24;3.95;;;1.20;;
71671;SDS011;67659;45.554;11.812;2023-08-06T23:21:50;3.57;;;0.90;;
71671;SDS011;67659;45.554;11.812;2023-08-06T23:24:16;3.08;;;0.95;;
71671;SDS011;67659;45.554;11.812;2023-08-06T23:26:42;2.60;;;0.80;;
71671;SDS011;67659;45.554;11.812;2023-08-06T23:29:08;2.33;;;0.97;;
71671;SDS011;67659;45.554;11.812;2023-08-06T23:31:34;3.55;;;1.10;;
71671;SDS011;67659;45.554;11.812;2023-08-06T23:33:59;3.92;;;1.25;;